createdAt,value
2022-08-03T00:00:54.611Z,99940.04
2022-08-03T00:03:57.612Z,99942.56
2022-08-03T00:07:00.426Z,99942.59
2022-08-03T00:10:03.527Z,99942.13
2022-08-03T00:13:08.312Z,99944.02
2022-08-03T00:16:11.490Z,99942.75
2022-08-03T00:19:14.471Z,99941.29
2022-08-03T00:22:17.385Z,99942.31
2022-08-03T00:25:20.802Z,99935.04
2022-08-03T00:28:23.676Z,99935.11
2022-08-03T00:31:51.602Z,99933.44
2022-08-03T00:34:57.826Z,99933.27
2022-08-03T00:38:03.395Z,99931.68
2022-08-03T00:41:06.282Z,99934.65
2022-08-03T00:44:09.114Z,99928.24
2022-08-03T00:47:12.298Z,99925.81
2022-08-03T00:50:16.150Z,99922.31
2022-08-03T00:53:19.371Z,99920.96
2022-08-03T00:56:23.835Z,99924.80
2022-08-03T00:59:27.567Z,99925.67
2022-08-03T01:02:30.349Z,99923.67
2022-08-03T01:05:58.262Z,99923.15
2022-08-03T01:09:16.941Z,99920.73
2022-08-03T01:12:29.491Z,99920.98
2022-08-03T01:15:37.161Z,99916.77
2022-08-03T01:19:08.865Z,99916.75
2022-08-03T01:22:37.894Z,99916.06
2022-08-03T01:25:40.662Z,99922.59
2022-08-03T01:29:05.443Z,99915.05
2022-08-03T01:32:58.802Z,99919.31
2022-08-03T01:35:58.808Z,99914.39
2022-08-03T01:39:09.549Z,99910.44
2022-08-03T01:42:15.570Z,99911.12
2022-08-03T01:45:21.723Z,99908.16
2022-08-03T01:48:26.248Z,99905.91
2022-08-03T01:51:58.694Z,99906.63
2022-08-03T01:54:55.777Z,99907.94
2022-08-03T01:58:04.749Z,99907.24
2022-08-03T02:01:12.221Z,99910.34
2022-08-03T02:04:18.578Z,99916.38
2022-08-03T02:07:21.909Z,99912.09
2022-08-03T02:10:35.259Z,99908.48
2022-08-03T02:13:40.089Z,99908.35
2022-08-03T02:16:44.966Z,99906.58
2022-08-03T02:19:50.996Z,99908.48
2022-08-03T02:22:54.096Z,99904.55
2022-08-03T02:26:01.991Z,99905.20
2022-08-03T02:29:12.336Z,99908.23
2022-08-03T02:32:20.471Z,99903.29
2022-08-03T02:35:24.563Z,99902.23
2022-08-03T02:38:36.080Z,99900.71
2022-08-03T02:41:46.569Z,99894.70
2022-08-03T02:44:53.591Z,99893.66
2022-08-03T02:48:01.480Z,99899.01
2022-08-03T02:51:05.783Z,99899.50
2022-08-03T02:54:12.098Z,99899.73
2022-08-03T02:57:16.730Z,99902.14
2022-08-03T03:00:28.035Z,99903.79
2022-08-03T03:03:39.993Z,99907.14
2022-08-03T03:06:49.268Z,99902.15
2022-08-03T03:09:53.118Z,99903.86
2022-08-03T03:12:57.645Z,99906.15
2022-08-03T03:16:03.231Z,99903.44
2022-08-03T03:19:08.858Z,99900.29
2022-08-03T03:22:13.601Z,99899.75
2022-08-03T03:25:17.764Z,99896.13
2022-08-03T03:28:21.144Z,99901.77
2022-08-03T03:31:24.320Z,99904.06
2022-08-03T03:34:30.799Z,99902.29
2022-08-03T03:37:34.055Z,99904.23
2022-08-03T03:40:38.301Z,99905.19
2022-08-03T03:43:41.631Z,99910.98
2022-08-03T03:46:44.811Z,99910.82
2022-08-03T03:49:47.690Z,99913.38
2022-08-03T03:52:51.370Z,99912.45
2022-08-03T03:55:59.761Z,99910.92
2022-08-03T03:59:05.700Z,99913.96
2022-08-03T04:02:10.577Z,99913.77
2022-08-03T04:05:33.750Z,99918.35
2022-08-03T04:08:55.359Z,99913.13
2022-08-03T04:12:01.878Z,99911.89
2022-08-03T04:15:06.490Z,99912.08
2022-08-03T04:18:13.388Z,99912.79
2022-08-03T04:21:19.990Z,99914.29
2022-08-03T04:24:26.534Z,99919.52
2022-08-03T04:27:36.616Z,99923.29
2022-08-03T04:30:49.197Z,99923.84
2022-08-03T04:33:53.989Z,99926.80
2022-08-03T04:37:00.552Z,99927.93
2022-08-03T04:40:07.331Z,99930.05
2022-08-03T04:43:13.924Z,99930.94
2022-08-03T04:46:20.650Z,99929.93
2022-08-03T04:49:24.345Z,99935.59
2022-08-03T04:52:27.256Z,99934.94
2022-08-03T04:55:33.363Z,99938.59
2022-08-03T04:58:36.690Z,99942.23
2022-08-03T05:01:41.613Z,99941.10
2022-08-03T05:04:46.695Z,99939.13
2022-08-03T05:07:50.236Z,99939.49
2022-08-03T05:10:53.598Z,99939.42
2022-08-03T05:13:57.429Z,99941.87
2022-08-03T05:17:00.601Z,99941.88
2022-08-03T05:20:08.198Z,99941.27
2022-08-03T05:23:11.123Z,99942.30
2022-08-03T05:26:15.560Z,99944.39
2022-08-03T05:29:18.438Z,99947.27
2022-08-03T05:32:21.555Z,99953.67
2022-08-03T05:36:02.171Z,99955.55
2022-08-03T05:38:49.462Z,99950.98
2022-08-03T05:41:52.257Z,99955.02
2022-08-03T05:45:23.184Z,99956.06
2022-08-03T05:48:29.182Z,99955.25
2022-08-03T05:51:32.019Z,99956.79
2022-08-03T05:54:55.819Z,99958.51
2022-08-03T05:57:58.967Z,99959.76
2022-08-03T06:01:01.824Z,99955.96
2022-08-03T06:04:04.903Z,99955.29
2022-08-03T06:07:07.725Z,99950.58
2022-08-03T06:10:36.215Z,99952.11
2022-08-03T06:13:34.584Z,99952.95
2022-08-03T06:16:37.454Z,99958.17
2022-08-03T06:19:48.213Z,99956.45
2022-08-03T06:23:00.473Z,99955.24
2022-08-03T06:26:04.844Z,99955.09
2022-08-03T06:29:09.892Z,99958.80
2022-08-03T06:32:12.876Z,99956.53
2022-08-03T06:35:16.580Z,99961.43
2022-08-03T06:38:19.457Z,99960.42
2022-08-03T06:41:22.187Z,99960.83
2022-08-03T06:44:26.001Z,99962.20
2022-08-03T06:47:28.783Z,99963.75
2022-08-03T06:50:34.698Z,99964.54
2022-08-03T06:53:37.630Z,99965.98
2022-08-03T06:56:40.562Z,99969.79
2022-08-03T07:00:10.085Z,99972.66
2022-08-03T07:03:06.258Z,99970.39
2022-08-03T07:06:09.175Z,99971.00
2022-08-03T07:09:12.005Z,99968.17
2022-08-03T07:12:14.963Z,99971.30
2022-08-03T07:15:20.439Z,99972.02
2022-08-03T07:18:41.117Z,99972.56
2022-08-03T07:21:43.933Z,99973.56
2022-08-03T07:24:47.943Z,99970.27
2022-08-03T07:28:21.018Z,99969.75
2022-08-03T07:31:24.005Z,99972.63
2022-08-03T07:34:26.893Z,99972.98
2022-08-03T07:37:31.067Z,99970.97
2022-08-03T07:40:34.007Z,99968.58
2022-08-03T07:43:37.025Z,99968.16
2022-08-03T07:46:39.847Z,99964.62
2022-08-03T07:49:42.998Z,99968.36
2022-08-03T07:52:48.804Z,99965.71
2022-08-03T07:55:51.984Z,99960.59
2022-08-03T07:58:55.723Z,99963.29
2022-08-03T08:01:58.659Z,99964.66
2022-08-03T08:05:05.521Z,99958.11
2022-08-03T08:08:09.937Z,99953.37
2022-08-03T08:11:12.951Z,99955.01
2022-08-03T08:14:15.903Z,99956.96
2022-08-03T08:17:20.477Z,99953.09
2022-08-03T08:20:28.057Z,99952.66
2022-08-03T08:23:43.808Z,99948.80
2022-08-03T08:26:49.445Z,99956.96
2022-08-03T08:29:55.228Z,99957.76
2022-08-03T08:33:00.598Z,99953.40
2022-08-03T08:36:05.441Z,99955.04
2022-08-03T08:39:08.794Z,99950.04
2022-08-03T08:42:11.831Z,99955.45
2022-08-03T08:45:15.870Z,99952.22
2022-08-03T08:48:24.908Z,99949.73
2022-08-03T08:51:50.472Z,99949.96
2022-08-03T08:55:04.386Z,99953.85
2022-08-03T08:58:11.031Z,99953.06
2022-08-03T09:01:14.285Z,99950.83
2022-08-03T09:04:18.065Z,99952.52
2022-08-03T09:07:21.647Z,99958.40
2022-08-03T09:10:24.771Z,99952.20
2022-08-03T09:13:29.398Z,99946.80
2022-08-03T09:16:32.461Z,99944.53
2022-08-03T09:19:36.152Z,99940.02
2022-08-03T09:23:59.156Z,99943.98
2022-08-03T09:26:38.682Z,99939.64
2022-08-03T09:29:43.475Z,99935.80
2022-08-03T09:32:47.490Z,99938.83
2022-08-03T09:35:57.896Z,99937.85
2022-08-03T09:39:04.695Z,99941.02
2022-08-03T09:42:09.311Z,99937.27
2022-08-03T09:45:27.406Z,99937.98
2022-08-03T09:48:31.927Z,99938.58
2022-08-03T09:52:31.714Z,99940.85
2022-08-03T09:54:57.931Z,99935.77
2022-08-03T09:58:09.699Z,99933.95
2022-08-03T10:01:24.053Z,99934.02
2022-08-03T10:04:29.159Z,99931.73
2022-08-03T10:07:46.043Z,99927.36
2022-08-03T10:10:51.473Z,99929.27
2022-08-03T10:13:58.031Z,99931.17
2022-08-03T10:17:04.990Z,99929.27
2022-08-03T10:20:09.835Z,99929.27
2022-08-03T10:23:15.437Z,99922.11
2022-08-03T10:26:22.682Z,99920.25
2022-08-03T10:29:29.176Z,99914.50
2022-08-03T10:32:40.321Z,99911.21
2022-08-03T10:35:45.371Z,99914.14
2022-08-03T10:38:53.417Z,99909.09
2022-08-03T10:42:00.033Z,99907.98
2022-08-03T10:45:09.938Z,99905.47
2022-08-03T10:48:14.010Z,99900.25
2022-08-03T10:51:17.497Z,99902.48
2022-08-03T10:55:07.636Z,99894.23
2022-08-03T10:58:12.864Z,99896.70
2022-08-03T11:01:59.799Z,99887.04
2022-08-03T11:05:28.527Z,99890.88
2022-08-03T11:08:37.611Z,99888.79
2022-08-03T11:11:43.577Z,99883.39
2022-08-03T11:14:48.846Z,99881.69
2022-08-03T11:18:11.539Z,99886.74
2022-08-03T11:21:15.525Z,99881.81
2022-08-03T11:24:39.446Z,99883.32
2022-08-03T11:27:42.624Z,99880.52
2022-08-03T11:30:45.593Z,99875.30
2022-08-03T11:34:03.920Z,99877.41
2022-08-03T11:37:28.566Z,99881.59
2022-08-03T11:40:50.591Z,99871.19
2022-08-03T11:43:53.542Z,99866.48
2022-08-03T11:46:57.046Z,99869.38
2022-08-03T11:50:02.412Z,99866.66
2022-08-03T11:53:07.259Z,99869.49
2022-08-03T11:56:12.897Z,99871.52
2022-08-03T11:59:22.134Z,99870.64
2022-08-03T12:02:25.723Z,99869.34
2022-08-03T12:05:38.171Z,99866.81
2022-08-03T12:08:43.642Z,99863.35
2022-08-03T12:12:00.373Z,99859.47
2022-08-03T12:15:05.964Z,99860.27
2022-08-03T12:18:18.040Z,99860.42
2022-08-03T12:21:24.749Z,99858.83
2022-08-03T12:24:41.484Z,99856.29
2022-08-03T12:27:44.456Z,99856.27
2022-08-03T12:30:50.508Z,99851.16
2022-08-03T12:34:15.062Z,99848.52
2022-08-03T12:37:23.519Z,99841.08
2022-08-03T12:40:28.309Z,99841.05
2022-08-03T12:43:37.665Z,99837.79
2022-08-03T12:46:47.670Z,99829.29
2022-08-03T12:49:54.175Z,99823.99
2022-08-03T12:52:58.479Z,99820.64
2022-08-03T12:56:05.607Z,99825.44
2022-08-03T12:59:32.482Z,99827.52
2022-08-03T13:02:38.701Z,99826.23
2022-08-03T13:05:45.890Z,99826.07
2022-08-03T13:08:49.770Z,99829.09
2022-08-03T13:12:10.195Z,99826.75
2022-08-03T13:15:13.637Z,99825.40
2022-08-03T13:18:17.517Z,99829.48
2022-08-03T13:21:21.771Z,99824.04
2022-08-03T13:24:24.999Z,99827.40
2022-08-03T13:28:03.618Z,99826.65
2022-08-03T13:30:54.807Z,99808.92
2022-08-03T13:33:57.757Z,99815.48
2022-08-03T13:37:09.827Z,99817.66
2022-08-03T13:40:14.743Z,99812.68
2022-08-03T13:43:18.136Z,99814.16
2022-08-03T13:46:21.108Z,99813.01
2022-08-03T13:49:29.155Z,99812.97
2022-08-03T13:52:34.155Z,99808.48
2022-08-03T13:55:50.394Z,99810.27
2022-08-03T13:58:54.181Z,99807.05
2022-08-03T14:01:57.809Z,99807.64
2022-08-03T14:05:00.745Z,99805.63
2022-08-03T14:08:05.958Z,99806.27
2022-08-03T14:11:09.041Z,99800.70
2022-08-03T14:14:12.420Z,99800.39
2022-08-03T14:17:16.310Z,99797.67
2022-08-03T14:20:36.725Z,99797.80
2022-08-03T14:23:43.034Z,99793.76
2022-08-03T14:26:47.745Z,99792.40
2022-08-03T14:29:50.821Z,99794.38
2022-08-03T14:32:55.946Z,99795.79
2022-08-03T14:36:02.398Z,99792.58
2022-08-03T14:39:06.064Z,99789.52
2022-08-03T14:42:08.954Z,99790.27
2022-08-03T14:45:20.013Z,99788.95
2022-08-03T14:50:26.529Z,99784.70
2022-08-03T14:51:58.720Z,99781.42
2022-08-03T14:55:02.293Z,99783.19
2022-08-03T14:58:18.595Z,99786.17
2022-08-03T15:02:03.510Z,99779.41
2022-08-03T15:05:18.021Z,99778.45
2022-08-03T15:08:22.620Z,99770.77
2022-08-03T15:11:25.438Z,99771.11
2022-08-03T15:14:33.407Z,99766.35
2022-08-03T15:18:00.430Z,99769.41
2022-08-03T15:21:32.487Z,99766.55
2022-08-03T15:24:36.617Z,99762.66
2022-08-03T15:28:04.113Z,99761.75
2022-08-03T15:31:35.619Z,99755.67
2022-08-03T15:34:38.584Z,99756.05
2022-08-03T15:37:42.227Z,99753.38
2022-08-03T15:40:45.857Z,99752.40
2022-08-03T15:43:48.730Z,99746.69
2022-08-03T15:46:53.399Z,99750.48
2022-08-03T15:49:56.374Z,99749.27
2022-08-03T15:52:59.593Z,99746.52
2022-08-03T15:56:09.419Z,99744.05
2022-08-03T15:59:14.137Z,99744.92
2022-08-03T16:02:17.412Z,99743.70
2022-08-03T16:05:20.586Z,99743.70
2022-08-03T16:08:23.562Z,99743.66
2022-08-03T16:11:26.538Z,99743.22
2022-08-03T16:14:34.818Z,99743.56
2022-08-03T16:17:43.739Z,99742.13
2022-08-03T16:20:47.221Z,99739.12
2022-08-03T16:23:50.398Z,99738.98
2022-08-03T16:26:54.497Z,99733.23
2022-08-03T16:29:57.568Z,99733.98
2022-08-03T16:33:01.053Z,99735.49
2022-08-03T16:36:04.239Z,99733.95
2022-08-03T16:39:07.261Z,99726.56
2022-08-03T16:42:10.486Z,99728.91
2022-08-03T16:45:14.078Z,99731.09
2022-08-03T16:48:17.914Z,99731.63
2022-08-03T16:51:23.149Z,99731.17
2022-08-03T16:54:28.050Z,99736.89
2022-08-03T16:57:58.883Z,99736.77
2022-08-03T17:00:57.283Z,99734.64
2022-08-03T17:04:04.538Z,99735.36
2022-08-03T17:07:08.835Z,99731.59
2022-08-03T17:10:13.175Z,99740.33
2022-08-03T17:13:21.868Z,99741.71
2022-08-03T17:16:26.063Z,99744.46
2022-08-03T17:19:31.152Z,99746.67
2022-08-03T17:22:39.583Z,99744.59
2022-08-03T17:26:02.263Z,99747.09
2022-08-03T17:29:13.060Z,99751.84
2022-08-03T17:32:21.287Z,99753.17
2022-08-03T17:35:35.550Z,99750.11
2022-08-03T17:38:41.542Z,99751.95
2022-08-03T17:41:48.969Z,99751.23
2022-08-03T17:44:54.787Z,99755.58
2022-08-03T17:47:59.334Z,99759.20
2022-08-03T17:51:31.373Z,99761.52
2022-08-03T17:55:56.102Z,99762.96
2022-08-03T17:59:08.656Z,99761.83
2022-08-03T18:02:55.584Z,99757.55
2022-08-03T18:06:11.136Z,99762.90
2022-08-03T18:10:03.195Z,99761.86
2022-08-03T18:12:54.544Z,99764.48
2022-08-03T18:16:02.291Z,99764.89
2022-08-03T18:19:09.517Z,99766.70
2022-08-03T18:22:13.784Z,99768.70
2022-08-03T18:25:37.815Z,99768.69
2022-08-03T18:28:44.956Z,99773.14
2022-08-03T18:32:01.461Z,99776.17
2022-08-03T18:35:13.809Z,99779.08
2022-08-03T18:38:18.770Z,99779.02
2022-08-03T18:48:19.811Z,99782.84
2022-08-03T18:51:43.194Z,99780.86
2022-08-03T18:55:19.748Z,99782.61
2022-08-03T18:58:29.191Z,99787.96
2022-08-03T19:02:00.662Z,99791.38
2022-08-03T19:05:11.493Z,99787.64
2022-08-03T19:08:18.231Z,99793.05
2022-08-03T19:12:10.973Z,99788.24
2022-08-03T19:15:00.393Z,99793.33
2022-08-03T19:18:26.724Z,99793.20
2022-08-03T19:21:38.675Z,99794.17
2022-08-03T19:24:43.740Z,99795.15
2022-08-03T19:27:48.126Z,99793.38
2022-08-03T19:30:53.739Z,99791.46
2022-08-03T19:33:58.959Z,99787.84
2022-08-03T19:37:02.851Z,99790.79
2022-08-03T19:40:10.700Z,99788.73
2022-08-03T19:43:32.903Z,99790.13
2022-08-03T19:46:56.383Z,99789.29
2022-08-03T19:50:14.052Z,99794.93
2022-08-03T19:53:17.781Z,99792.66
2022-08-03T19:56:24.738Z,99791.30
2022-08-03T19:59:29.785Z,99794.02
2022-08-03T20:02:34.445Z,99793.48
2022-08-03T20:05:44.831Z,99791.89
2022-08-03T20:08:57.100Z,99793.91
2022-08-03T20:12:02.227Z,99792.48
2022-08-03T20:15:07.138Z,99790.73
2022-08-03T20:18:16.819Z,99789.16
2022-08-03T20:21:25.258Z,99787.91
2022-08-03T20:24:36.464Z,99790.08
2022-08-03T20:28:08.211Z,99787.20
2022-08-03T20:31:16.456Z,99786.48
2022-08-03T20:34:21.229Z,99789.09
2022-08-03T20:37:24.452Z,99791.04
2022-08-03T20:40:29.375Z,99793.39
2022-08-03T20:43:33.582Z,99795.98
2022-08-03T20:46:50.361Z,99797.86
2022-08-03T20:50:00.254Z,99798.82
2022-08-03T20:53:04.913Z,99800.04
2022-08-03T20:56:10.180Z,99801.59
2022-08-03T20:59:14.867Z,99804.42
2022-08-03T21:02:29.471Z,99802.29
2022-08-03T21:05:51.055Z,99805.79
2022-08-03T21:09:04.268Z,99804.56
2022-08-03T21:12:11.787Z,99796.91
2022-08-03T21:12:59.143Z,99783.77
2022-08-03T21:13:03.991Z,99780.27
2022-08-03T21:16:06.419Z,99801.54
2022-08-03T21:18:47.872Z,99801.09
2022-08-03T21:21:53.246Z,99801.41
2022-08-03T21:24:57.571Z,99800.81
2022-08-03T21:28:01.875Z,99806.07
2022-08-03T21:31:04.845Z,99809.49
2022-08-03T21:34:08.392Z,99810.22
2022-08-03T21:37:15.395Z,99809.58
2022-08-03T21:40:18.686Z,99810.46
2022-08-03T21:43:21.575Z,99811.11
2022-08-03T21:46:26.830Z,99805.17
2022-08-03T21:50:05.077Z,99801.63
2022-08-03T21:52:59.189Z,99802.77
2022-08-03T21:56:13.495Z,99802.98
2022-08-03T21:59:18.737Z,99804.30
2022-08-03T22:02:30.117Z,99803.20
2022-08-03T22:05:43.669Z,99806.16
2022-08-03T22:08:48.999Z,99805.85
2022-08-03T22:11:55.300Z,99804.91
2022-08-03T22:15:02.082Z,99808.36
2022-08-03T22:18:05.902Z,99813.60
2022-08-03T22:21:11.889Z,99809.12
2022-08-03T22:24:18.904Z,99809.05
2022-08-03T22:27:31.610Z,99806.29
2022-08-03T22:30:35.185Z,99807.80
2022-08-03T22:33:38.776Z,99805.90
2022-08-03T22:36:42.620Z,99810.55
2022-08-03T22:39:46.154Z,99812.59
2022-08-03T22:42:50.512Z,99806.85
2022-08-03T22:46:09.554Z,99805.27
2022-08-03T22:49:16.644Z,99804.88
2022-08-03T22:52:20.353Z,99808.02
2022-08-03T22:55:25.259Z,99809.41
2022-08-03T22:58:28.349Z,99811.14
2022-08-03T23:01:37.546Z,99809.47
2022-08-03T23:04:42.403Z,99808.17
2022-08-03T23:07:45.894Z,99805.73
2022-08-03T23:10:50.818Z,99807.45
2022-08-03T23:13:56.839Z,99810.04
2022-08-03T23:17:03.979Z,99815.25
2022-08-03T23:20:11.363Z,99813.88
2022-08-03T23:23:15.449Z,99816.26
2022-08-03T23:26:23.129Z,99815.93
2022-08-03T23:29:38.865Z,99810.85
2022-08-03T23:32:43.707Z,99812.08
2022-08-03T23:36:20.176Z,99809.84
2022-08-03T23:39:23.171Z,99808.55
2022-08-03T23:42:27.629Z,99807.12
2022-08-03T23:45:35.229Z,99806.18
2022-08-03T23:48:40.152Z,99805.44
2022-08-03T23:52:00.895Z,99807.38
2022-08-03T23:55:22.357Z,99809.30
2022-08-03T23:59:03.637Z,99807.34
